sensor_id;sensor_type;location;lat;lon;timestamp;temperature;humidity
69546;SHT31;56766;52.260;20.746;2024-02-04T00:00:48;6.78;80.50
69546;SHT31;56766;52.260;20.746;2024-02-04T00:03:35;6.72;80.46
69546;SHT31;56766;52.260;20.746;2024-02-04T00:06:01;6.73;80.20
69546;SHT31;56766;52.260;20.746;2024-02-04T00:08:27;6.73;80.35
69546;SHT31;56766;52.260;20.746;2024-02-04T00:10:53;6.72;80.39
69546;SHT31;56766;52.260;20.746;2024-02-04T00:13:19;6.67;80.68
69546;SHT31;56766;52.260;20.746;2024-02-04T00:15:45;6.58;80.68
69546;SHT31;56766;52.260;20.746;2024-02-04T00:18:11;6.54;80.82
69546;SHT31;56766;52.260;20.746;2024-02-04T00:20:37;6.51;80.90
69546;SHT31;56766;52.260;20.746;2024-02-04T00:23:03;6.48;80.98
69546;SHT31;56766;52.260;20.746;2024-02-04T00:25:29;6.44;81.20
69546;SHT31;56766;52.260;20.746;2024-02-04T00:27:55;6.40;81.31
69546;SHT31;56766;52.260;20.746;2024-02-04T00:30:21;6.35;81.40
69546;SHT31;56766;52.260;20.746;2024-02-04T00:32:47;6.31;81.55
69546;SHT31;56766;52.260;20.746;2024-02-04T00:35:14;6.27;81.63
69546;SHT31;56766;52.260;20.746;2024-02-04T00:37:40;6.26;81.78
69546;SHT31;56766;52.260;20.746;2024-02-04T00:40:06;6.22;81.91
69546;SHT31;56766;52.260;20.746;2024-02-04T00:42:33;6.18;82.00
69546;SHT31;56766;52.260;20.746;2024-02-04T00:44:58;6.13;82.11
69546;SHT31;56766;52.260;20.746;2024-02-04T00:47:24;6.11;82.29
69546;SHT31;56766;52.260;20.746;2024-02-04T00:49:51;6.10;82.40
69546;SHT31;56766;52.260;20.746;2024-02-04T00:52:17;6.08;82.44
69546;SHT31;56766;52.260;20.746;2024-02-04T00:54:43;6.08;82.60
69546;SHT31;56766;52.260;20.746;2024-02-04T00:57:09;6.07;82.74
69546;SHT31;56766;52.260;20.746;2024-02-04T00:59:35;6.05;82.97
69546;SHT31;56766;52.260;20.746;2024-02-04T01:02:01;6.04;83.14
69546;SHT31;56766;52.260;20.746;2024-02-04T01:04:28;6.03;83.20
69546;SHT31;56766;52.260;20.746;2024-02-04T01:06:54;5.99;83.38
69546;SHT31;56766;52.260;20.746;2024-02-04T01:09:20;5.99;83.56
69546;SHT31;56766;52.260;20.746;2024-02-04T01:11:46;5.99;83.63
69546;SHT31;56766;52.260;20.746;2024-02-04T01:14:12;5.98;83.60
69546;SHT31;56766;52.260;20.746;2024-02-04T01:16:38;5.97;83.72
69546;SHT31;56766;52.260;20.746;2024-02-04T01:19:04;5.95;83.83
69546;SHT31;56766;52.260;20.746;2024-02-04T01:21:30;5.93;83.92
69546;SHT31;56766;52.260;20.746;2024-02-04T01:23:56;5.91;84.02
69546;SHT31;56766;52.260;20.746;2024-02-04T01:26:22;5.89;84.18
69546;SHT31;56766;52.260;20.746;2024-02-04T01:28:49;5.90;84.29
69546;SHT31;56766;52.260;20.746;2024-02-04T01:31:15;5.90;84.41
69546;SHT31;56766;52.260;20.746;2024-02-04T01:33:41;5.93;84.46
69546;SHT31;56766;52.260;20.746;2024-02-04T01:36:07;5.95;84.54
69546;SHT31;56766;52.260;20.746;2024-02-04T01:38:33;6.00;84.61
69546;SHT31;56766;52.260;20.746;2024-02-04T01:40:59;6.05;84.56
69546;SHT31;56766;52.260;20.746;2024-02-04T01:43:26;6.08;84.56
69546;SHT31;56766;52.260;20.746;2024-02-04T01:45:52;6.11;84.60
69546;SHT31;56766;52.260;20.746;2024-02-04T01:48:21;6.17;84.47
69546;SHT31;56766;52.260;20.746;2024-02-04T01:50:50;6.17;84.42
69546;SHT31;56766;52.260;20.746;2024-02-04T01:53:22;6.15;84.49
69546;SHT31;56766;52.260;20.746;2024-02-04T01:55:49;6.13;84.50
69546;SHT31;56766;52.260;20.746;2024-02-04T01:58:17;6.14;84.50
69546;SHT31;56766;52.260;20.746;2024-02-04T02:00:44;6.15;84.57
69546;SHT31;56766;52.260;20.746;2024-02-04T02:03:12;6.16;84.50
69546;SHT31;56766;52.260;20.746;2024-02-04T02:05:40;6.18;84.48
69546;SHT31;56766;52.260;20.746;2024-02-04T02:08:07;6.20;84.46
69546;SHT31;56766;52.260;20.746;2024-02-04T02:10:34;6.21;84.48
69546;SHT31;56766;52.260;20.746;2024-02-04T02:13:11;6.24;84.50
69546;SHT31;56766;52.260;20.746;2024-02-04T02:15:58;6.23;84.52
69546;SHT31;56766;52.260;20.746;2024-02-04T02:24:57;6.25;84.32
69546;SHT31;56766;52.260;20.746;2024-02-04T02:27:26;6.24;84.29
69546;SHT31;56766;52.260;20.746;2024-02-04T02:29:52;6.25;84.18
69546;SHT31;56766;52.260;20.746;2024-02-04T02:32:18;6.26;84.04
69546;SHT31;56766;52.260;20.746;2024-02-04T02:34:46;6.29;83.92
69546;SHT31;56766;52.260;20.746;2024-02-04T02:37:36;6.30;83.87
69546;SHT31;56766;52.260;20.746;2024-02-04T02:40:23;6.32;83.82
69546;SHT31;56766;52.260;20.746;2024-02-04T02:43:05;6.34;83.73
69546;SHT31;56766;52.260;20.746;2024-02-04T02:45:34;6.39;83.49
69546;SHT31;56766;52.260;20.746;2024-02-04T02:48:00;6.45;83.41
69546;SHT31;56766;52.260;20.746;2024-02-04T02:50:27;6.46;83.30
69546;SHT31;56766;52.260;20.746;2024-02-04T02:52:54;6.49;83.16
69546;SHT31;56766;52.260;20.746;2024-02-04T02:55:20;6.52;82.94
69546;SHT31;56766;52.260;20.746;2024-02-04T02:57:45;6.55;82.71
69546;SHT31;56766;52.260;20.746;2024-02-04T03:00:12;6.57;82.74
69546;SHT31;56766;52.260;20.746;2024-02-04T03:02:39;6.59;82.41
69546;SHT31;56766;52.260;20.746;2024-02-04T03:05:05;6.61;82.08
69546;SHT31;56766;52.260;20.746;2024-02-04T03:07:31;6.66;81.92
69546;SHT31;56766;52.260;20.746;2024-02-04T03:09:57;6.67;82.10
69546;SHT31;56766;52.260;20.746;2024-02-04T03:12:23;6.68;81.81
69546;SHT31;56766;52.260;20.746;2024-02-04T03:14:49;6.68;81.72
69546;SHT31;56766;52.260;20.746;2024-02-04T03:17:15;6.70;81.42
69546;SHT31;56766;52.260;20.746;2024-02-04T03:19:47;6.70;80.75
69546;SHT31;56766;52.260;20.746;2024-02-04T03:22:22;6.72;80.76
69546;SHT31;56766;52.260;20.746;2024-02-04T03:24:48;6.74;80.19
69546;SHT31;56766;52.260;20.746;2024-02-04T03:27:17;6.76;80.15
69546;SHT31;56766;52.260;20.746;2024-02-04T03:29:43;6.75;79.97
69546;SHT31;56766;52.260;20.746;2024-02-04T03:32:13;6.75;79.83
69546;SHT31;56766;52.260;20.746;2024-02-04T03:34:41;6.76;79.20
69546;SHT31;56766;52.260;20.746;2024-02-04T03:37:07;6.75;79.38
69546;SHT31;56766;52.260;20.746;2024-02-04T03:39:33;6.75;79.11
69546;SHT31;56766;52.260;20.746;2024-02-04T03:42:00;6.74;79.42
69546;SHT31;56766;52.260;20.746;2024-02-04T03:44:26;6.72;79.22
69546;SHT31;56766;52.260;20.746;2024-02-04T03:46:52;6.71;79.01
69546;SHT31;56766;52.260;20.746;2024-02-04T03:49:19;6.70;78.97
69546;SHT31;56766;52.260;20.746;2024-02-04T03:51:46;6.68;78.99
69546;SHT31;56766;52.260;20.746;2024-02-04T03:54:12;6.67;78.64
69546;SHT31;56766;52.260;20.746;2024-02-04T03:56:38;6.65;78.85
69546;SHT31;56766;52.260;20.746;2024-02-04T03:59:04;6.63;78.79
69546;SHT31;56766;52.260;20.746;2024-02-04T04:01:30;6.64;78.79
69546;SHT31;56766;52.260;20.746;2024-02-04T04:03:56;6.63;78.81
69546;SHT31;56766;52.260;20.746;2024-02-04T04:06:22;6.64;78.47
69546;SHT31;56766;52.260;20.746;2024-02-04T04:08:48;6.64;78.71
69546;SHT31;56766;52.260;20.746;2024-02-04T04:11:14;6.62;78.37
69546;SHT31;56766;52.260;20.746;2024-02-04T04:13:41;6.64;78.32
69546;SHT31;56766;52.260;20.746;2024-02-04T04:16:07;6.63;78.36
69546;SHT31;56766;52.260;20.746;2024-02-04T04:18:33;6.59;77.69
69546;SHT31;56766;52.260;20.746;2024-02-04T04:20:59;6.52;76.62
69546;SHT31;56766;52.260;20.746;2024-02-04T04:23:25;6.45;76.12
69546;SHT31;56766;52.260;20.746;2024-02-04T04:25:51;6.37;75.47
69546;SHT31;56766;52.260;20.746;2024-02-04T04:28:17;6.25;77.22
69546;SHT31;56766;52.260;20.746;2024-02-04T04:30:43;6.05;78.43
69546;SHT31;56766;52.260;20.746;2024-02-04T04:33:09;5.91;79.16
69546;SHT31;56766;52.260;20.746;2024-02-04T04:35:35;5.79;79.57
69546;SHT31;56766;52.260;20.746;2024-02-04T04:38:01;5.70;79.83
69546;SHT31;56766;52.260;20.746;2024-02-04T04:40:27;5.60;80.12
69546;SHT31;56766;52.260;20.746;2024-02-04T04:42:53;5.56;80.22
69546;SHT31;56766;52.260;20.746;2024-02-04T04:45:19;5.52;80.41
69546;SHT31;56766;52.260;20.746;2024-02-04T04:47:45;5.49;80.51
69546;SHT31;56766;52.260;20.746;2024-02-04T04:50:11;5.48;80.65
69546;SHT31;56766;52.260;20.746;2024-02-04T04:52:36;5.44;80.78
69546;SHT31;56766;52.260;20.746;2024-02-04T04:55:03;5.44;80.83
69546;SHT31;56766;52.260;20.746;2024-02-04T04:57:29;5.44;80.77
69546;SHT31;56766;52.260;20.746;2024-02-04T04:59:57;5.45;80.78
69546;SHT31;56766;52.260;20.746;2024-02-04T05:02:26;5.48;80.61
69546;SHT31;56766;52.260;20.746;2024-02-04T05:04:52;5.52;80.42
69546;SHT31;56766;52.260;20.746;2024-02-04T05:07:18;5.56;80.28
69546;SHT31;56766;52.260;20.746;2024-02-04T05:09:44;5.59;80.29
69546;SHT31;56766;52.260;20.746;2024-02-04T05:12:11;5.63;80.12
69546;SHT31;56766;52.260;20.746;2024-02-04T05:14:37;5.63;80.12
69546;SHT31;56766;52.260;20.746;2024-02-04T05:17:04;5.57;80.06
69546;SHT31;56766;52.260;20.746;2024-02-04T05:19:31;5.50;80.16
69546;SHT31;56766;52.260;20.746;2024-02-04T05:21:57;5.43;80.41
69546;SHT31;56766;52.260;20.746;2024-02-04T05:24:23;5.36;79.91
69546;SHT31;56766;52.260;20.746;2024-02-04T05:26:49;5.35;79.63
69546;SHT31;56766;52.260;20.746;2024-02-04T05:29:15;5.33;79.79
69546;SHT31;56766;52.260;20.746;2024-02-04T05:31:42;5.30;79.91
69546;SHT31;56766;52.260;20.746;2024-02-04T05:34:09;5.28;79.91
69546;SHT31;56766;52.260;20.746;2024-02-04T05:36:36;5.28;80.00
69546;SHT31;56766;52.260;20.746;2024-02-04T05:39:13;5.28;79.79
69546;SHT31;56766;52.260;20.746;2024-02-04T05:41:40;5.30;79.79
69546;SHT31;56766;52.260;20.746;2024-02-04T05:44:07;5.32;79.80
69546;SHT31;56766;52.260;20.746;2024-02-04T05:46:35;5.34;79.68
69546;SHT31;56766;52.260;20.746;2024-02-04T05:49:02;5.36;79.59
69546;SHT31;56766;52.260;20.746;2024-02-04T05:51:28;5.36;79.71
69546;SHT31;56766;52.260;20.746;2024-02-04T05:53:55;5.36;79.76
69546;SHT31;56766;52.260;20.746;2024-02-04T05:56:21;5.35;79.74
69546;SHT31;56766;52.260;20.746;2024-02-04T05:58:47;5.35;79.88
69546;SHT31;56766;52.260;20.746;2024-02-04T06:01:15;5.34;79.96
69546;SHT31;56766;52.260;20.746;2024-02-04T06:03:43;5.32;80.03
69546;SHT31;56766;52.260;20.746;2024-02-04T06:06:14;5.32;80.07
69546;SHT31;56766;52.260;20.746;2024-02-04T06:08:46;5.28;80.26
69546;SHT31;56766;52.260;20.746;2024-02-04T06:11:13;5.25;80.39
69546;SHT31;56766;52.260;20.746;2024-02-04T06:13:41;5.23;80.41
69546;SHT31;56766;52.260;20.746;2024-02-04T06:16:09;5.21;80.46
69546;SHT31;56766;52.260;20.746;2024-02-04T06:18:40;5.21;80.48
69546;SHT31;56766;52.260;20.746;2024-02-04T06:21:07;5.20;80.46
69546;SHT31;56766;52.260;20.746;2024-02-04T06:23:34;5.18;80.58
69546;SHT31;56766;52.260;20.746;2024-02-04T06:26:00;5.17;80.63
69546;SHT31;56766;52.260;20.746;2024-02-04T06:28:27;5.17;80.71
69546;SHT31;56766;52.260;20.746;2024-02-04T06:30:53;5.16;80.91
69546;SHT31;56766;52.260;20.746;2024-02-04T06:33:19;5.15;81.07
69546;SHT31;56766;52.260;20.746;2024-02-04T06:35:46;5.14;81.27
69546;SHT31;56766;52.260;20.746;2024-02-04T06:38:12;5.13;81.51
69546;SHT31;56766;52.260;20.746;2024-02-04T06:40:38;5.12;81.73
69546;SHT31;56766;52.260;20.746;2024-02-04T06:43:04;5.10;81.89
69546;SHT31;56766;52.260;20.746;2024-02-04T06:45:30;5.09;82.09
69546;SHT31;56766;52.260;20.746;2024-02-04T06:47:56;5.09;82.19
69546;SHT31;56766;52.260;20.746;2024-02-04T06:50:22;5.09;82.29
69546;SHT31;56766;52.260;20.746;2024-02-04T06:52:48;5.09;82.36
69546;SHT31;56766;52.260;20.746;2024-02-04T06:55:14;5.07;82.41
69546;SHT31;56766;52.260;20.746;2024-02-04T06:57:40;5.07;82.49
69546;SHT31;56766;52.260;20.746;2024-02-04T07:00:06;5.06;82.51
69546;SHT31;56766;52.260;20.746;2024-02-04T07:02:37;5.07;82.54
69546;SHT31;56766;52.260;20.746;2024-02-04T07:05:04;5.08;82.51
69546;SHT31;56766;52.260;20.746;2024-02-04T07:07:30;5.10;82.55
69546;SHT31;56766;52.260;20.746;2024-02-04T07:09:57;5.14;82.56
69546;SHT31;56766;52.260;20.746;2024-02-04T07:12:23;5.19;82.59
69546;SHT31;56766;52.260;20.746;2024-02-04T07:14:49;5.25;82.51
69546;SHT31;56766;52.260;20.746;2024-02-04T07:17:15;5.31;82.42
69546;SHT31;56766;52.260;20.746;2024-02-04T07:19:41;5.34;82.40
69546;SHT31;56766;52.260;20.746;2024-02-04T07:22:07;5.39;82.30
69546;SHT31;56766;52.260;20.746;2024-02-04T07:24:33;5.42;82.06
69546;SHT31;56766;52.260;20.746;2024-02-04T07:27:01;5.48;82.01
69546;SHT31;56766;52.260;20.746;2024-02-04T07:29:27;5.53;81.89
69546;SHT31;56766;52.260;20.746;2024-02-04T07:31:53;5.57;81.73
69546;SHT31;56766;52.260;20.746;2024-02-04T07:34:18;5.63;81.79
69546;SHT31;56766;52.260;20.746;2024-02-04T07:36:44;5.69;81.71
69546;SHT31;56766;52.260;20.746;2024-02-04T07:39:11;5.75;81.76
69546;SHT31;56766;52.260;20.746;2024-02-04T07:41:37;5.81;81.65
69546;SHT31;56766;52.260;20.746;2024-02-04T07:44:03;5.88;81.60
69546;SHT31;56766;52.260;20.746;2024-02-04T07:46:30;5.93;81.63
69546;SHT31;56766;52.260;20.746;2024-02-04T07:48:56;5.95;81.32
69546;SHT31;56766;52.260;20.746;2024-02-04T07:51:24;5.96;81.31
69546;SHT31;56766;52.260;20.746;2024-02-04T07:53:50;5.96;81.36
69546;SHT31;56766;52.260;20.746;2024-02-04T07:56:16;5.99;81.22
69546;SHT31;56766;52.260;20.746;2024-02-04T07:58:42;6.02;81.28
69546;SHT31;56766;52.260;20.746;2024-02-04T08:01:08;6.04;81.22
69546;SHT31;56766;52.260;20.746;2024-02-04T08:03:34;6.03;81.13
69546;SHT31;56766;52.260;20.746;2024-02-04T08:06:01;6.07;81.20
69546;SHT31;56766;52.260;20.746;2024-02-04T08:08:28;6.10;81.19
69546;SHT31;56766;52.260;20.746;2024-02-04T08:10:54;6.14;81.13
69546;SHT31;56766;52.260;20.746;2024-02-04T08:13:20;6.19;81.10
69546;SHT31;56766;52.260;20.746;2024-02-04T08:15:46;6.24;80.87
69546;SHT31;56766;52.260;20.746;2024-02-04T08:18:12;6.29;80.94
69546;SHT31;56766;52.260;20.746;2024-02-04T08:20:38;6.35;80.62
69546;SHT31;56766;52.260;20.746;2024-02-04T08:23:04;6.38;80.36
69546;SHT31;56766;52.260;20.746;2024-02-04T08:25:30;6.39;80.24
69546;SHT31;56766;52.260;20.746;2024-02-04T08:27:58;6.38;79.86
69546;SHT31;56766;52.260;20.746;2024-02-04T08:30:24;6.37;79.95
69546;SHT31;56766;52.260;20.746;2024-02-04T08:32:50;6.38;79.86
69546;SHT31;56766;52.260;20.746;2024-02-04T08:35:16;6.38;79.75
69546;SHT31;56766;52.260;20.746;2024-02-04T08:37:42;6.38;79.71
69546;SHT31;56766;52.260;20.746;2024-02-04T08:40:09;6.35;79.33
69546;SHT31;56766;52.260;20.746;2024-02-04T08:42:36;6.35;79.61
69546;SHT31;56766;52.260;20.746;2024-02-04T08:45:02;6.35;79.52
69546;SHT31;56766;52.260;20.746;2024-02-04T08:47:28;6.36;79.21
69546;SHT31;56766;52.260;20.746;2024-02-04T08:49:55;6.36;78.96
69546;SHT31;56766;52.260;20.746;2024-02-04T08:52:21;6.38;79.06
69546;SHT31;56766;52.260;20.746;2024-02-04T08:54:47;6.36;78.93
69546;SHT31;56766;52.260;20.746;2024-02-04T08:57:14;6.35;78.48
69546;SHT31;56766;52.260;20.746;2024-02-04T08:59:40;6.33;78.57
69546;SHT31;56766;52.260;20.746;2024-02-04T09:02:07;6.32;78.97
69546;SHT31;56766;52.260;20.746;2024-02-04T09:04:33;6.31;78.99
69546;SHT31;56766;52.260;20.746;2024-02-04T09:07:07;6.33;78.98
69546;SHT31;56766;52.260;20.746;2024-02-04T09:09:33;6.35;78.86
69546;SHT31;56766;52.260;20.746;2024-02-04T09:11:59;6.37;78.51
69546;SHT31;56766;52.260;20.746;2024-02-04T09:14:25;6.39;78.66
69546;SHT31;56766;52.260;20.746;2024-02-04T09:16:51;6.42;78.84
69546;SHT31;56766;52.260;20.746;2024-02-04T09:19:17;6.47;78.53
69546;SHT31;56766;52.260;20.746;2024-02-04T09:21:43;6.50;78.46
69546;SHT31;56766;52.260;20.746;2024-02-04T09:24:09;6.54;78.49
69546;SHT31;56766;52.260;20.746;2024-02-04T09:26:35;6.58;77.91
69546;SHT31;56766;52.260;20.746;2024-02-04T09:29:01;6.67;78.08
69546;SHT31;56766;52.260;20.746;2024-02-04T09:31:28;6.72;78.02
69546;SHT31;56766;52.260;20.746;2024-02-04T09:33:54;6.72;77.81
69546;SHT31;56766;52.260;20.746;2024-02-04T09:36:20;6.76;77.95
69546;SHT31;56766;52.260;20.746;2024-02-04T09:38:48;6.80;77.81
69546;SHT31;56766;52.260;20.746;2024-02-04T09:41:14;6.87;77.66
69546;SHT31;56766;52.260;20.746;2024-02-04T09:43:41;6.92;77.73
69546;SHT31;56766;52.260;20.746;2024-02-04T09:46:08;6.96;77.70
69546;SHT31;56766;52.260;20.746;2024-02-04T09:48:38;6.97;77.12
69546;SHT31;56766;52.260;20.746;2024-02-04T09:51:06;6.99;77.37
69546;SHT31;56766;52.260;20.746;2024-02-04T09:53:34;6.99;77.45
69546;SHT31;56766;52.260;20.746;2024-02-04T09:56:03;7.00;77.47
69546;SHT31;56766;52.260;20.746;2024-02-04T09:58:32;6.98;77.25
69546;SHT31;56766;52.260;20.746;2024-02-04T10:01:00;6.97;76.92
69546;SHT31;56766;52.260;20.746;2024-02-04T10:03:27;6.96;77.04
69546;SHT31;56766;52.260;20.746;2024-02-04T10:05:53;6.97;77.14
69546;SHT31;56766;52.260;20.746;2024-02-04T10:08:20;7.00;77.26
69546;SHT31;56766;52.260;20.746;2024-02-04T10:10:47;7.01;77.28
69546;SHT31;56766;52.260;20.746;2024-02-04T10:13:14;7.01;77.13
69546;SHT31;56766;52.260;20.746;2024-02-04T10:15:40;7.00;77.30
69546;SHT31;56766;52.260;20.746;2024-02-04T10:18:07;7.04;77.43
69546;SHT31;56766;52.260;20.746;2024-02-04T10:20:36;7.07;77.42
69546;SHT31;56766;52.260;20.746;2024-02-04T10:23:03;7.09;77.56
69546;SHT31;56766;52.260;20.746;2024-02-04T10:25:29;7.07;76.95
69546;SHT31;56766;52.260;20.746;2024-02-04T10:27:56;7.07;77.11
69546;SHT31;56766;52.260;20.746;2024-02-04T10:30:25;7.08;77.34
69546;SHT31;56766;52.260;20.746;2024-02-04T10:32:52;7.08;77.26
69546;SHT31;56766;52.260;20.746;2024-02-04T10:35:24;7.08;77.29
69546;SHT31;56766;52.260;20.746;2024-02-04T10:37:52;7.02;77.46
69546;SHT31;56766;52.260;20.746;2024-02-04T10:40:19;6.99;77.51
69546;SHT31;56766;52.260;20.746;2024-02-04T10:42:49;6.93;77.28
69546;SHT31;56766;52.260;20.746;2024-02-04T10:45:21;6.90;77.40
69546;SHT31;56766;52.260;20.746;2024-02-04T10:47:56;6.94;77.83
69546;SHT31;56766;52.260;20.746;2024-02-04T10:50:27;6.97;77.95
69546;SHT31;56766;52.260;20.746;2024-02-04T10:52:58;6.96;78.11
69546;SHT31;56766;52.260;20.746;2024-02-04T10:55:30;6.95;78.15
69546;SHT31;56766;52.260;20.746;2024-02-04T10:57:59;6.92;78.34
69546;SHT31;56766;52.260;20.746;2024-02-04T11:00:27;6.89;78.77
69546;SHT31;56766;52.260;20.746;2024-02-04T11:02:56;6.87;79.13
69546;SHT31;56766;52.260;20.746;2024-02-04T11:05:25;6.87;79.26
69546;SHT31;56766;52.260;20.746;2024-02-04T11:07:52;6.87;79.37
69546;SHT31;56766;52.260;20.746;2024-02-04T11:10:19;6.85;79.50
69546;SHT31;56766;52.260;20.746;2024-02-04T11:12:48;6.81;79.65
69546;SHT31;56766;52.260;20.746;2024-02-04T11:15:19;6.77;79.64
69546;SHT31;56766;52.260;20.746;2024-02-04T11:27:15;6.51;81.47
69546;SHT31;56766;52.260;20.746;2024-02-04T11:29:42;6.43;81.72
69546;SHT31;56766;52.260;20.746;2024-02-04T11:32:10;6.37;82.02
69546;SHT31;56766;52.260;20.746;2024-02-04T11:34:38;6.32;82.28
69546;SHT31;56766;52.260;20.746;2024-02-04T11:37:16;6.30;82.44
69546;SHT31;56766;52.260;20.746;2024-02-04T11:39:49;6.27;82.81
69546;SHT31;56766;52.260;20.746;2024-02-04T11:42:17;6.27;82.88
69546;SHT31;56766;52.260;20.746;2024-02-04T11:44:44;6.27;83.04
69546;SHT31;56766;52.260;20.746;2024-02-04T11:47:23;6.24;83.15
69546;SHT31;56766;52.260;20.746;2024-02-04T11:49:59;6.23;83.17
69546;SHT31;56766;52.260;20.746;2024-02-04T11:52:29;6.20;83.26
69546;SHT31;56766;52.260;20.746;2024-02-04T11:54:55;6.18;83.37
69546;SHT31;56766;52.260;20.746;2024-02-04T11:57:23;6.20;83.39
69546;SHT31;56766;52.260;20.746;2024-02-04T11:59:52;6.24;83.24
69546;SHT31;56766;52.260;20.746;2024-02-04T12:02:23;6.27;83.29
69546;SHT31;56766;52.260;20.746;2024-02-04T12:04:51;6.29;83.39
69546;SHT31;56766;52.260;20.746;2024-02-04T12:07:17;6.32;83.39
69546;SHT31;56766;52.260;20.746;2024-02-04T12:09:46;6.33;83.27
69546;SHT31;56766;52.260;20.746;2024-02-04T12:12:13;6.38;83.31
69546;SHT31;56766;52.260;20.746;2024-02-04T12:14:41;6.43;83.32
69546;SHT31;56766;52.260;20.746;2024-02-04T12:17:11;6.47;83.39
69546;SHT31;56766;52.260;20.746;2024-02-04T12:19:39;6.50;83.36
69546;SHT31;56766;52.260;20.746;2024-02-04T12:22:05;6.55;83.23
69546;SHT31;56766;52.260;20.746;2024-02-04T12:24:38;6.60;82.99
69546;SHT31;56766;52.260;20.746;2024-02-04T12:27:05;6.67;82.89
69546;SHT31;56766;52.260;20.746;2024-02-04T12:29:33;6.71;82.92
69546;SHT31;56766;52.260;20.746;2024-02-04T12:32:02;6.76;83.00
69546;SHT31;56766;52.260;20.746;2024-02-04T12:34:30;6.80;82.80
69546;SHT31;56766;52.260;20.746;2024-02-04T12:37:01;6.84;82.56
69546;SHT31;56766;52.260;20.746;2024-02-04T12:39:27;6.86;82.63
69546;SHT31;56766;52.260;20.746;2024-02-04T12:41:55;6.89;82.45
69546;SHT31;56766;52.260;20.746;2024-02-04T12:44:21;6.89;82.37
69546;SHT31;56766;52.260;20.746;2024-02-04T12:46:54;6.90;82.43
69546;SHT31;56766;52.260;20.746;2024-02-04T12:49:21;6.90;82.34
69546;SHT31;56766;52.260;20.746;2024-02-04T12:51:50;6.89;82.06
69546;SHT31;56766;52.260;20.746;2024-02-04T12:54:21;6.87;82.19
69546;SHT31;56766;52.260;20.746;2024-02-04T12:56:54;6.85;82.27
69546;SHT31;56766;52.260;20.746;2024-02-04T12:59:31;6.83;82.44
69546;SHT31;56766;52.260;20.746;2024-02-04T13:02:05;6.78;82.53
69546;SHT31;56766;52.260;20.746;2024-02-04T13:07:06;6.74;82.62
69546;SHT31;56766;52.260;20.746;2024-02-04T13:09:36;6.74;82.66
69546;SHT31;56766;52.260;20.746;2024-02-04T13:12:03;6.75;82.67
69546;SHT31;56766;52.260;20.746;2024-02-04T13:14:31;6.74;82.79
69546;SHT31;56766;52.260;20.746;2024-02-04T13:16:57;6.71;82.80
69546;SHT31;56766;52.260;20.746;2024-02-04T13:19:24;6.70;82.77
69546;SHT31;56766;52.260;20.746;2024-02-04T13:21:50;6.67;82.77
69546;SHT31;56766;52.260;20.746;2024-02-04T13:24:16;6.66;82.80
69546;SHT31;56766;52.260;20.746;2024-02-04T13:26:42;6.64;82.62
69546;SHT31;56766;52.260;20.746;2024-02-04T13:29:08;6.64;82.46
69546;SHT31;56766;52.260;20.746;2024-02-04T13:31:34;6.62;82.50
69546;SHT31;56766;52.260;20.746;2024-02-04T13:34:00;6.61;82.47
69546;SHT31;56766;52.260;20.746;2024-02-04T13:36:30;6.60;82.49
69546;SHT31;56766;52.260;20.746;2024-02-04T13:38:57;6.60;82.49
69546;SHT31;56766;52.260;20.746;2024-02-04T13:41:23;6.59;82.48
69546;SHT31;56766;52.260;20.746;2024-02-04T13:43:49;6.56;82.41
69546;SHT31;56766;52.260;20.746;2024-02-04T13:46:16;6.54;82.35
69546;SHT31;56766;52.260;20.746;2024-02-04T13:48:42;6.51;82.22
69546;SHT31;56766;52.260;20.746;2024-02-04T13:51:08;6.49;82.34
69546;SHT31;56766;52.260;20.746;2024-02-04T13:53:34;6.50;82.07
69546;SHT31;56766;52.260;20.746;2024-02-04T13:56:02;6.49;81.98
69546;SHT31;56766;52.260;20.746;2024-02-04T13:58:28;6.49;81.99
69546;SHT31;56766;52.260;20.746;2024-02-04T14:00:54;6.48;81.73
69546;SHT31;56766;52.260;20.746;2024-02-04T14:03:20;6.47;81.82
69546;SHT31;56766;52.260;20.746;2024-02-04T14:05:46;6.47;81.75
69546;SHT31;56766;52.260;20.746;2024-02-04T14:08:12;6.46;81.62
69546;SHT31;56766;52.260;20.746;2024-02-04T14:10:39;6.47;81.67
69546;SHT31;56766;52.260;20.746;2024-02-04T14:13:05;6.46;81.51
69546;SHT31;56766;52.260;20.746;2024-02-04T14:15:31;6.47;81.47
69546;SHT31;56766;52.260;20.746;2024-02-04T14:17:59;6.48;81.48
69546;SHT31;56766;52.260;20.746;2024-02-04T14:20:26;6.50;81.38
69546;SHT31;56766;52.260;20.746;2024-02-04T14:22:54;6.52;81.08
69546;SHT31;56766;52.260;20.746;2024-02-04T14:25:23;6.53;81.20
69546;SHT31;56766;52.260;20.746;2024-02-04T14:27:50;6.53;81.25
69546;SHT31;56766;52.260;20.746;2024-02-04T14:30:16;6.54;81.18
69546;SHT31;56766;52.260;20.746;2024-02-04T14:32:42;6.51;81.25
69546;SHT31;56766;52.260;20.746;2024-02-04T14:35:09;6.52;81.16
69546;SHT31;56766;52.260;20.746;2024-02-04T14:37:36;6.52;81.13
69546;SHT31;56766;52.260;20.746;2024-02-04T14:40:06;6.51;81.12
69546;SHT31;56766;52.260;20.746;2024-02-04T14:42:33;6.50;81.02
69546;SHT31;56766;52.260;20.746;2024-02-04T14:44:59;6.49;81.06
69546;SHT31;56766;52.260;20.746;2024-02-04T14:47:27;6.47;81.08
69546;SHT31;56766;52.260;20.746;2024-02-04T14:49:54;6.47;80.93
69546;SHT31;56766;52.260;20.746;2024-02-04T14:52:20;6.48;80.80
69546;SHT31;56766;52.260;20.746;2024-02-04T14:54:46;6.46;80.93
69546;SHT31;56766;52.260;20.746;2024-02-04T14:57:12;6.45;80.83
69546;SHT31;56766;52.260;20.746;2024-02-04T14:59:39;6.45;80.86
69546;SHT31;56766;52.260;20.746;2024-02-04T15:02:06;6.45;80.77
69546;SHT31;56766;52.260;20.746;2024-02-04T15:04:33;6.45;80.78
69546;SHT31;56766;52.260;20.746;2024-02-04T15:07:00;6.43;80.74
69546;SHT31;56766;52.260;20.746;2024-02-04T15:09:34;6.43;80.71
69546;SHT31;56766;52.260;20.746;2024-02-04T15:12:01;6.42;80.64
69546;SHT31;56766;52.260;20.746;2024-02-04T15:14:28;6.43;80.70
69546;SHT31;56766;52.260;20.746;2024-02-04T15:16:54;6.41;80.89
69546;SHT31;56766;52.260;20.746;2024-02-04T15:19:24;6.39;80.93
69546;SHT31;56766;52.260;20.746;2024-02-04T15:21:52;6.38;80.93
69546;SHT31;56766;52.260;20.746;2024-02-04T15:24:19;6.37;80.97
69546;SHT31;56766;52.260;20.746;2024-02-04T15:26:48;6.36;81.03
69546;SHT31;56766;52.260;20.746;2024-02-04T15:29:16;6.35;81.06
69546;SHT31;56766;52.260;20.746;2024-02-04T15:31:45;6.35;80.97
69546;SHT31;56766;52.260;20.746;2024-02-04T15:34:18;6.36;80.87
69546;SHT31;56766;52.260;20.746;2024-02-04T15:36:44;6.36;80.98
69546;SHT31;56766;52.260;20.746;2024-02-04T15:39:11;6.37;80.91
69546;SHT31;56766;52.260;20.746;2024-02-04T15:41:38;6.39;80.79
69546;SHT31;56766;52.260;20.746;2024-02-04T15:44:05;6.40;80.85
69546;SHT31;56766;52.260;20.746;2024-02-04T15:46:33;6.40;80.94
69546;SHT31;56766;52.260;20.746;2024-02-04T15:49:01;6.40;80.90